Time;durP1;ratioP1;P1;durP2;ratioP2;P2;SDS_P1;SDS_P2;PMS_P1;PMS_P2;Temp;Humidity;BMP_temperature;BMP_pressure;BME280_temperature;BME280_humidity;BME280_pressure;Samples;Min_cycle;Max_cycle;Signal;HPM_P1;HPM_P2
2022/11/05 00:16:48;;;;;;;11.67;6.80;;;;;11.80;98580.00;;;;16579515;28;20708;-83
2022/11/05 00:33:11;;;;;;;6.70;6.20;;;;;12.00;98604.00;;;;16570138;28;20226;-83
2022/11/05 00:41:15;;;;;;;7.57;6.37;;;;;11.90;98599.00;;;;16556724;28;20248;-82
2022/11/05 00:49:30;;;;;;;9.47;7.47;;;;;11.80;98620.00;;;;16573418;28;20281;-82
2022/11/05 00:57:34;;;;;;;10.43;9.43;;;;;11.80;98627.00;;;;16568891;28;20281;-83
2022/11/05 01:05:39;;;;;;;7.33;5.90;;;;;11.70;98642.00;;;;16556033;28;20605;-84
2022/11/05 01:13:43;;;;;;;7.97;7.03;;;;;11.90;98645.00;;;;16554360;28;20652;-82
2022/11/05 01:21:45;;;;;;;8.60;7.17;;;;;12.00;98651.00;;;;16570187;28;20276;-82
2022/11/05 01:29:49;;;;;;;6.97;6.37;;;;;11.80;98652.00;;;;16567144;28;20229;-83
2022/11/05 01:37:52;;;;;;;9.70;8.90;;;;;12.00;98664.00;;;;16567575;28;20203;-83
2022/11/05 01:45:58;;;;;;;6.80;6.10;;;;;12.60;98659.00;;;;16578441;28;20242;-83
2022/11/05 01:54:04;;;;;;;11.83;8.97;;;;;12.40;98667.00;;;;16572609;28;20490;-83
2022/11/05 02:02:08;;;;;;;5.27;4.70;;;;;12.10;98666.00;;;;16550773;28;20632;-83
2022/11/05 02:10:13;;;;;;;4.53;4.23;;;;;11.70;98672.00;;;;16546039;28;20290;-83
2022/11/05 02:18:24;;;;;;;3.67;3.37;;;;;12.00;98675.00;;;;16568704;28;20193;-83
2022/11/05 02:27:05;;;;;;;4.63;3.80;;;;;12.30;98677.00;;;;16536712;28;20236;-82
2022/11/05 02:35:18;;;;;;;4.37;3.57;;;;;12.00;98681.00;;;;16524437;28;20839;-83
2022/11/05 02:43:26;;;;;;;4.20;3.10;;;;;12.10;98678.00;;;;16566226;28;20348;-83
2022/11/05 02:51:33;;;;;;;4.50;3.43;;;;;11.90;98686.00;;;;16541020;28;20238;-82
2022/11/05 02:59:36;;;;;;;4.00;3.70;;;;;11.90;98692.00;;;;16542984;28;20206;-82
2022/11/05 03:07:45;;;;;;;3.60;3.13;;;;;11.90;98684.00;;;;16543310;28;20328;-82
2022/11/05 03:15:56;;;;;;;4.97;3.20;;;;;12.00;98695.00;;;;16543592;28;20297;-83
2022/11/05 03:24:02;;;;;;;3.03;2.83;;;;;11.70;98717.00;;;;16552612;28;20258;-82
2022/11/05 03:32:05;;;;;;;5.13;4.03;;;;;11.70;98714.00;;;;16548388;28;20258;-83
2022/11/05 03:40:11;;;;;;;4.77;3.40;;;;;11.70;98726.00;;;;16535322;28;20311;-82
2022/11/05 03:48:15;;;;;;;3.90;3.50;;;;;11.90;98724.00;;;;16545062;28;20235;-82
2022/11/05 03:56:23;;;;;;;3.50;2.73;;;;;12.10;98738.00;;;;16540076;28;20220;-83
2022/11/05 04:04:26;;;;;;;2.83;2.63;;;;;11.80;98751.00;;;;16560717;28;20235;-83
2022/11/05 04:37:31;;;;;;;2.70;2.50;;;;;12.60;98788.00;;;;16536764;28;20294;-82
2022/11/05 04:45:35;;;;;;;4.83;2.93;;;;;11.90;98782.00;;;;16576134;28;20610;-83
2022/11/05 04:53:37;;;;;;;4.70;2.73;;;;;11.70;98795.00;;;;16560277;28;20254;-83
2022/11/05 05:01:41;;;;;;;2.90;2.60;;;;;11.70;98801.00;;;;16535932;28;20251;-84
2022/11/05 05:09:44;;;;;;;2.90;2.20;;;;;11.50;98813.00;;;;16535738;28;20225;-83
2022/11/05 05:17:51;;;;;;;3.87;2.53;;;;;11.60;98819.00;;;;16547382;28;20656;-82
2022/11/05 05:25:54;;;;;;;2.90;2.70;;;;;11.50;98821.00;;;;16555709;28;20279;-83
2022/11/05 05:33:58;;;;;;;3.00;2.27;;;;;11.80;98818.00;;;;16552439;28;20232;-83
2022/11/05 05:42:00;;;;;;;2.37;2.00;;;;;11.70;98833.00;;;;16546943;28;20304;-84
2022/11/05 05:50:06;;;;;;;2.40;2.20;;;;;11.60;98840.00;;;;16537392;28;20228;-82
2022/11/05 05:58:08;;;;;;;3.33;2.53;;;;;11.50;98850.00;;;;16549502;28;20617;-83
2022/11/05 06:06:13;;;;;;;3.77;3.23;;;;;11.40;98859.00;;;;16541833;28;20777;-83
2022/11/05 06:14:16;;;;;;;3.87;3.53;;;;;11.40;98869.00;;;;16554086;28;20241;-82
2022/11/05 06:22:19;;;;;;;6.43;5.80;;;;;11.40;98869.00;;;;16566334;28;20252;-83
2022/11/05 06:30:22;;;;;;;7.97;5.67;;;;;11.40;98898.00;;;;16546267;28;20240;-83
2022/11/05 06:38:28;;;;;;;7.10;6.37;;;;;11.50;98903.00;;;;16544383;28;20254;-83
2022/11/05 06:46:30;;;;;;;20.40;15.43;;;;;11.60;98910.00;;;;16557133;28;20246;-83
2022/11/05 06:54:34;;;;;;;17.17;15.00;;;;;11.70;98923.00;;;;16540745;28;20247;-83
2022/11/05 07:02:36;;;;;;;21.13;17.20;;;;;11.70;98942.00;;;;16550819;28;20314;-83
2022/11/05 07:10:40;;;;;;;20.27;17.20;;;;;11.70;98955.00;;;;16590368;28;20231;-84
2022/11/05 07:18:43;;;;;;;19.90;17.17;;;;;11.80;98967.00;;;;16578613;28;20233;-83
2022/11/05 07:26:46;;;;;;;23.20;18.77;;;;;12.00;98980.00;;;;16574137;28;20229;-83
2022/11/05 07:34:49;;;;;;;20.40;16.90;;;;;12.10;98986.00;;;;16547477;28;20614;-83
2022/11/05 07:42:54;;;;;;;18.60;16.47;;;;;12.10;98989.00;;;;16572832;28;20266;-84
2022/11/05 07:50:57;;;;;;;18.77;15.13;;;;;12.40;99007.00;;;;16586637;28;20229;-83
2022/11/05 07:59:01;;;;;;;20.20;17.43;;;;;12.10;99008.00;;;;16553666;28;20233;-82
2022/11/05 08:07:03;;;;;;;21.47;16.13;;;;;11.80;99022.00;;;;16547728;28;20263;-83
2022/11/05 08:15:09;;;;;;;18.80;16.03;;;;;11.80;99024.00;;;;16555523;28;20310;-84
2022/11/05 08:23:11;;;;;;;25.57;19.00;;;;;11.80;99037.00;;;;16571270;28;20301;-83
2022/11/05 08:31:16;;;;;;;22.90;17.43;;;;;11.60;99055.00;;;;16554083;28;20603;-83
2022/11/05 08:39:19;;;;;;;12.97;11.67;;;;;11.30;99072.00;;;;16584551;28;20498;-84
2022/11/05 08:47:24;;;;;;;11.97;6.57;;;;;11.10;99070.00;;;;16570014;28;20253;-83
2022/11/05 08:55:26;;;;;;;6.60;5.93;;;;;11.00;99084.00;;;;16563882;28;20224;-83
2022/11/05 09:03:30;;;;;;;6.10;5.50;;;;;11.00;99099.00;;;;16571502;28;20287;-83
2022/11/05 09:11:33;;;;;;;6.33;5.70;;;;;11.10;99093.00;;;;16566385;28;20228;-83
2022/11/05 09:19:37;;;;;;;5.33;4.83;;;;;11.30;99105.00;;;;16569623;28;20297;-83
2022/11/05 09:27:40;;;;;;;6.73;6.00;;;;;11.50;99111.00;;;;16570533;28;20227;-83
2022/11/05 09:35:43;;;;;;;6.87;6.17;;;;;11.60;99114.00;;;;16590744;28;20283;-83
2022/11/05 09:43:50;;;;;;;6.10;5.50;;;;;11.40;99120.00;;;;16573666;28;20267;-83
2022/11/05 09:51:56;;;;;;;9.10;8.20;;;;;11.30;99118.00;;;;16570563;28;20347;-83
2022/11/05 10:00:01;;;;;;;14.43;11.40;;;;;11.30;99122.00;;;;16573359;28;20230;-83
2022/11/05 10:08:07;;;;;;;15.40;11.50;;;;;11.70;99133.00;;;;16561116;28;20306;-83
2022/11/05 10:16:20;;;;;;;13.73;10.60;;;;;11.40;99147.00;;;;16541577;28;20714;-83
2022/11/05 10:24:24;;;;;;;15.33;13.30;;;;;11.90;99147.00;;;;16573090;28;20271;-83
2022/11/05 10:32:29;;;;;;;13.40;12.00;;;;;11.90;99163.00;;;;16576888;28;20261;-82
2022/11/05 10:40:44;;;;;;;13.77;11.70;;;;;12.20;99162.00;;;;16574919;28;20852;-82
2022/11/05 10:48:57;;;;;;;17.40;12.03;;;;;12.00;99159.00;;;;16582009;28;20251;-81
2022/11/05 10:57:01;;;;;;;11.60;9.67;;;;;11.90;99182.00;;;;16580108;28;20473;-81
2022/11/05 11:05:04;;;;;;;11.37;10.10;;;;;11.70;99175.00;;;;16581776;28;20222;-82
2022/11/05 11:13:19;;;;;;;13.07;10.60;;;;;12.40;99171.00;;;;16572460;28;20233;-81
2022/11/05 11:21:23;;;;;;;12.10;9.90;;;;;12.30;99172.00;;;;16563205;28;20233;-82
2022/11/05 11:29:27;;;;;;;10.80;8.43;;;;;12.30;99178.00;;;;16569605;28;20299;-82
2022/11/05 11:37:33;;;;;;;10.50;9.40;;;;;12.60;99170.00;;;;16583607;28;20218;-81
2022/11/05 11:45:43;;;;;;;8.87;7.97;;;;;12.90;99168.00;;;;16591525;28;20315;-82
2022/11/05 11:53:48;;;;;;;9.63;8.63;;;;;13.10;99185.00;;;;16582797;28;20559;-82
2022/11/05 12:02:26;;;;;;;9.37;8.13;;;;;13.20;99177.00;;;;16591328;28;20722;-81
2022/11/05 12:10:47;;;;;;;10.53;8.00;;;;;13.70;99176.00;;;;16581474;28;20841;-81
2022/11/05 12:18:56;;;;;;;7.40;6.70;;;;;14.80;99148.00;;;;16568735;28;20235;-79
2022/11/05 12:27:09;;;;;;;8.13;6.80;;;;;14.80;99147.00;;;;16565761;28;20342;-79
2022/11/05 12:35:30;;;;;;;6.30;5.50;;;;;14.90;99146.00;;;;16538380;28;20560;-80
2022/11/05 12:43:43;;;;;;;5.30;4.90;;;;;14.70;99143.00;;;;16549750;28;20243;-82
2022/11/05 12:52:04;;;;;;;6.53;5.80;;;;;14.10;99148.00;;;;16585934;28;20227;-81
2022/11/05 13:00:14;;;;;;;8.30;6.20;;;;;14.20;99160.00;;;;16590270;28;20219;-82
2022/11/05 13:08:21;;;;;;;6.80;6.10;;;;;13.50;99165.00;;;;16577833;28;20230;-79
2022/11/05 13:16:27;;;;;;;8.83;7.27;;;;;14.00;99167.00;;;;16580172;28;20327;-80
2022/11/05 13:24:34;;;;;;;7.37;6.50;;;;;13.50;99171.00;;;;16570088;28;20306;-80
2022/11/05 13:32:39;;;;;;;9.90;7.80;;;;;14.20;99175.00;;;;16562272;28;20850;-80
2022/11/05 13:40:54;;;;;;;8.10;7.33;;;;;14.00;99183.00;;;;16568895;28;20555;-80
2022/11/05 13:49:26;;;;;;;13.07;8.93;;;;;13.90;99183.00;;;;16580174;28;20241;-80
2022/11/05 13:57:51;;;;;;;12.77;9.83;;;;;13.60;99186.00;;;;16575169;28;20233;-80
2022/11/05 14:05:57;;;;;;;9.40;7.63;;;;;13.50;99185.00;;;;16570777;28;20316;-79
2022/11/05 14:14:03;;;;;;;7.43;6.57;;;;;13.20;99191.00;;;;16567320;28;20231;-80
2022/11/05 14:22:35;;;;;;;7.37;6.10;;;;;13.10;99202.00;;;;16580991;28;20211;-80
2022/11/05 14:30:44;;;;;;;7.90;7.20;;;;;13.00;99200.00;;;;16572122;28;20227;-80
2022/11/05 14:38:48;;;;;;;8.10;6.30;;;;;13.20;99201.00;;;;16567262;28;20302;-80
2022/11/05 14:46:54;;;;;;;7.60;6.83;;;;;13.10;99217.00;;;;16555030;28;20274;-80
2022/11/05 14:54:58;;;;;;;6.27;5.03;;;;;12.60;99234.00;;;;16571660;28;20303;-80
2022/11/05 15:03:29;;;;;;;9.60;8.60;;;;;12.80;99231.00;;;;16567447;28;20269;-79
2022/11/05 15:11:36;;;;;;;10.90;7.17;;;;;12.80;99242.00;;;;16562961;28;20273;-80
2022/11/05 15:19:42;;;;;;;13.20;10.97;;;;;13.40;99232.00;;;;16550508;28;20225;-80
2022/11/05 15:27:53;;;;;;;25.33;23.07;;;;;13.50;99236.00;;;;16565648;28;20320;-80
2022/11/05 15:36:09;;;;;;;18.23;13.90;;;;;12.80;99249.00;;;;16567605;28;20224;-80
2022/11/05 15:44:24;;;;;;;14.37;12.23;;;;;12.50;99254.00;;;;16570198;28;20477;-79
2022/11/05 15:52:35;;;;;;;13.60;9.00;;;;;12.40;99250.00;;;;16564745;28;20241;-80
2022/11/05 16:00:37;;;;;;;9.70;7.90;;;;;12.20;99261.00;;;;16563512;28;20724;-80
2022/11/05 16:08:47;;;;;;;26.57;21.40;;;;;12.40;99249.00;;;;16571498;28;20219;-80
2022/11/05 16:16:50;;;;;;;9.13;7.97;;;;;12.00;99267.00;;;;16564535;28;20243;-81
2022/11/05 16:24:53;;;;;;;11.30;10.07;;;;;12.20;99276.00;;;;16567379;28;20760;-82
2022/11/05 16:33:04;;;;;;;11.30;10.10;;;;;12.40;99272.00;;;;16585930;28;20265;-83
2022/11/05 16:41:13;;;;;;;11.17;10.07;;;;;11.80;99287.00;;;;16590465;28;20223;-81
2022/11/05 16:49:16;;;;;;;13.07;11.00;;;;;11.70;99294.00;;;;16584223;28;20301;-82
2022/11/05 16:57:23;;;;;;;17.03;12.97;;;;;11.90;99296.00;;;;16573324;28;20250;-82
2022/11/05 17:05:27;;;;;;;9.53;8.53;;;;;11.60;99307.00;;;;16582495;28;20737;-81
2022/11/05 17:13:31;;;;;;;10.93;8.93;;;;;11.40;99318.00;;;;16593499;28;20640;-81
2022/11/05 17:21:35;;;;;;;12.90;8.80;;;;;11.10;99315.00;;;;16593609;28;20213;-81
2022/11/05 17:29:39;;;;;;;13.40;10.87;;;;;10.60;99335.00;;;;16599021;28;20674;-80
2022/11/05 17:37:41;;;;;;;9.90;8.60;;;;;10.40;99339.00;;;;16602837;28;20267;-81
2022/11/05 17:45:48;;;;;;;9.83;8.23;;;;;10.10;99330.00;;;;16593207;28;20453;-80
2022/11/05 17:53:50;;;;;;;12.87;11.00;;;;;9.90;99348.00;;;;16576422;28;20220;-81
2022/11/05 18:01:54;;;;;;;12.20;10.57;;;;;9.60;99364.00;;;;16586941;28;20234;-82
2022/11/05 18:09:57;;;;;;;19.33;11.60;;;;;9.50;99377.00;;;;16575708;28;20286;-80
2022/11/05 18:18:01;;;;;;;10.67;8.77;;;;;9.40;99394.00;;;;16558080;28;20709;-83
2022/11/05 18:26:08;;;;;;;13.83;11.00;;;;;9.40;99394.00;;;;16580915;28;20246;-83
2022/11/05 18:34:12;;;;;;;16.27;11.70;;;;;9.40;99394.00;;;;16571736;28;20610;-83
2022/11/05 18:42:15;;;;;;;13.07;10.40;;;;;9.10;99394.00;;;;16592007;28;20719;-82
2022/11/05 18:50:19;;;;;;;16.60;12.37;;;;;8.80;99404.00;;;;16579160;28;20244;-83
2022/11/05 18:58:21;;;;;;;12.70;10.20;;;;;8.60;99400.00;;;;16570462;28;20200;-82
2022/11/05 19:06:25;;;;;;;16.80;12.20;;;;;8.50;99385.00;;;;16552841;28;20313;-83
2022/11/05 19:14:29;;;;;;;36.60;23.57;;;;;8.60;99390.00;;;;16576855;28;20815;-81
2022/11/05 19:22:34;;;;;;;22.80;17.40;;;;;8.50;99386.00;;;;16575522;28;20230;-82
2022/11/05 19:30:38;;;;;;;14.27;12.80;;;;;8.20;99384.00;;;;16571705;28;20269;-82
2022/11/05 19:38:48;;;;;;;22.03;16.97;;;;;8.30;99379.00;;;;16563561;28;20249;-84
2022/11/05 19:46:50;;;;;;;15.73;12.73;;;;;8.30;99393.00;;;;16579429;28;20350;-83
2022/11/05 19:54:54;;;;;;;23.80;19.40;;;;;8.30;99392.00;;;;16569034;28;20231;-83
2022/11/05 20:02:57;;;;;;;20.80;16.67;;;;;8.30;99397.00;;;;16555625;28;20230;-81
2022/11/05 20:11:00;;;;;;;21.03;17.00;;;;;8.60;99392.00;;;;16575310;28;20324;-82
2022/11/05 20:19:03;;;;;;;23.90;17.70;;;;;7.80;99410.00;;;;16582550;28;20227;-81
2022/11/05 20:27:08;;;;;;;22.33;19.93;;;;;8.30;99414.00;;;;16570060;28;20231;-84
2022/11/05 20:35:11;;;;;;;28.07;25.07;;;;;8.20;99424.00;;;;16573436;28;20314;-84
2022/11/05 20:43:15;;;;;;;18.90;14.63;;;;;7.80;99426.00;;;;16558715;28;20628;-83
2022/11/05 20:51:19;;;;;;;23.60;16.00;;;;;8.70;99416.00;;;;16553188;28;20257;-84
2022/11/05 20:59:23;;;;;;;16.13;14.43;;;;;7.90;99431.00;;;;16557805;28;20211;-83
2022/11/05 21:07:26;;;;;;;18.17;14.60;;;;;7.60;99434.00;;;;16536527;28;20237;-84
2022/11/05 21:15:30;;;;;;;21.77;16.53;;;;;8.80;99413.00;;;;16560595;28;20731;-84
2022/11/05 21:23:32;;;;;;;31.77;22.47;;;;;9.40;99409.00;;;;16542789;28;20708;-84
2022/11/05 21:31:38;;;;;;;32.43;24.73;;;;;9.50;99402.00;;;;16545373;28;20237;-84
2022/11/05 21:39:41;;;;;;;27.43;21.67;;;;;9.50;99407.00;;;;16539136;28;20265;-84
2022/11/05 21:47:44;;;;;;;25.40;21.87;;;;;9.60;99401.00;;;;16549788;28;20317;-85
2022/11/05 22:04:05;;;;;;;21.50;19.20;;;;;9.40;99404.00;;;;16538822;28;20338;-84
2022/11/05 22:12:08;;;;;;;25.33;20.33;;;;;9.50;99403.00;;;;16554815;28;20230;-84
2022/11/05 22:20:12;;;;;;;23.23;19.20;;;;;9.30;99396.00;;;;16570367;28;20711;-84
2022/11/05 22:28:15;;;;;;;24.20;21.57;;;;;9.50;99392.00;;;;16554703;28;20234;-82
2022/11/05 22:36:19;;;;;;;25.13;21.73;;;;;9.40;99395.00;;;;16553673;28;20848;-82
2022/11/05 22:44:21;;;;;;;24.07;20.93;;;;;9.40;99392.00;;;;16554546;28;20227;-82
2022/11/05 22:52:25;;;;;;;23.87;21.23;;;;;9.10;99382.00;;;;16566800;28;20246;-82
2022/11/05 23:00:35;;;;;;;22.13;18.83;;;;;8.30;99393.00;;;;16561438;28;20849;-82
2022/11/05 23:25:22;;;;;;;23.03;20.37;;;;;8.40;99369.00;;;;16554465;28;20244;-80
2022/11/05 23:33:24;;;;;;;21.93;19.63;;;;;8.90;99381.00;;;;16550566;28;20457;-80
2022/11/05 23:49:49;;;;;;;24.17;16.47;;;;;8.50;99349.00;;;;16588236;28;20241;-82
2022/11/05 23:57:53;;;;;;;27.10;21.93;;;;;8.40;99354.00;;;;16579284;28;20260;-83
